UAL1823 KPNS-KIAH
Flight info
| Callsign | UAL1823 |
|---|---|
| Flight time | 1h 22m |
| Altitude | 16000 |
| Route | PENSI V198 LOXLY/N0458F340 ROMMY HRV NNCEE2 |
| Aircraft | B739/M-SDE2E3FGHIRWXY/LB1 |
Departure
| Time | 2026-04-26 17:27 |
|---|---|
| Airport | Pensacola International Airport (KPNS) |
Arrival
| Time | 2026-04-26 18:49 |
|---|---|
| Airport | George Bush Intercontinental Airport (KIAH) |
| Time | Latitude | Longitude | Altitude | Speed | Heading |
|---|---|---|---|---|---|
| 2026-04-26 16:49 | 30.47525 | -87.19148 | 111 ft | 0 kts | 269° |
| 2026-04-26 17:05 | 30.47525 | -87.19137 | 108 ft | 2 kts | 269° |
| 2026-04-26 17:06 | 30.47526 | -87.19124 | 107 ft | 2 kts | 267° |
| 2026-04-26 17:06 | 30.47527 | -87.19111 | 108 ft | 2 kts | 258° |
| 2026-04-26 17:06 | 30.47530 | -87.19098 | 106 ft | 2 kts | 246° |
| 2026-04-26 17:06 | 30.47535 | -87.19087 | 106 ft | 2 kts | 225° |
| 2026-04-26 17:07 | 30.47544 | -87.19079 | 106 ft | 2 kts | 204° |
| 2026-04-26 17:07 | 30.47555 | -87.19075 | 105 ft | 2 kts | 188° |
| 2026-04-26 17:07 | 30.47556 | -87.19075 | 104 ft | 0 kts | 188° |
| 2026-04-26 17:09 | 30.47542 | -87.19075 | 106 ft | 4 kts | 177° |
| 2026-04-26 17:09 | 30.47507 | -87.19072 | 106 ft | 5 kts | 174° |
| 2026-04-26 17:10 | 30.47474 | -87.19067 | 106 ft | 1 kts | 172° |
| 2026-04-26 17:11 | 30.47450 | -87.19063 | 106 ft | 8 kts | 172° |
| 2026-04-26 17:11 | 30.47398 | -87.19012 | 103 ft | 12 kts | 120° |
| 2026-04-26 17:11 | 30.47394 | -87.18921 | 104 ft | 11 kts | 80° |
| 2026-04-26 17:12 | 30.47427 | -87.18748 | 103 ft | 11 kts | 77° |
| 2026-04-26 17:12 | 30.47442 | -87.18665 | 104 ft | 10 kts | 78° |
| 2026-04-26 17:13 | 30.47474 | -87.18493 | 105 ft | 12 kts | 77° |
| 2026-04-26 17:13 | 30.47491 | -87.18402 | 106 ft | 11 kts | 77° |
| 2026-04-26 17:13 | 30.47523 | -87.18216 | 106 ft | 13 kts | 79° |
| 2026-04-26 17:14 | 30.47541 | -87.18112 | 107 ft | 13 kts | 78° |
| 2026-04-26 17:14 | 30.47579 | -87.17912 | 111 ft | 12 kts | 78° |
| 2026-04-26 17:14 | 30.47597 | -87.17817 | 109 ft | 12 kts | 77° |
| 2026-04-26 17:15 | 30.47631 | -87.17631 | 111 ft | 11 kts | 78° |
| 2026-04-26 17:15 | 30.47647 | -87.17542 | 113 ft | 11 kts | 78° |
| 2026-04-26 17:15 | 30.47652 | -87.17506 | 112 ft | 0 kts | 87° |
| 2026-04-26 17:20 | 30.47650 | -87.17487 | 115 ft | 4 kts | 107° |
| 2026-04-26 17:20 | 30.47630 | -87.17463 | 113 ft | 4 kts | 149° |
| 2026-04-26 17:21 | 30.47622 | -87.17459 | 114 ft | 0 kts | 156° |
| 2026-04-26 17:25 | 30.47618 | -87.17457 | 114 ft | 2 kts | 157° |
| 2026-04-26 17:25 | 30.47567 | -87.17441 | 112 ft | 11 kts | 168° |
| 2026-04-26 17:26 | 30.47521 | -87.17482 | 109 ft | 10 kts | 256° |
| 2026-04-26 17:26 | 30.47481 | -87.17710 | 109 ft | 65 kts | 261° |
| 2026-04-26 17:26 | 30.47332 | -87.18536 | 104 ft | 141 kts | 257° |
| 2026-04-26 17:26 | 30.47084 | -87.19836 | 395 ft | 177 kts | 257° |
| 2026-04-26 17:27 | 30.46769 | -87.21219 | 1375 ft | 181 kts | 255° |
| 2026-04-26 17:27 | 30.46440 | -87.22667 | 2297 ft | 190 kts | 257° |
| 2026-04-26 17:27 | 30.46102 | -87.24193 | 3099 ft | 200 kts | 257° |
| 2026-04-26 17:27 | 30.45770 | -87.25763 | 3752 ft | 206 kts | 263° |
| 2026-04-26 17:28 | 30.45754 | -87.27412 | 4372 ft | 203 kts | 279° |
| 2026-04-26 17:28 | 30.46307 | -87.28952 | 4651 ft | 220 kts | 315° |
| 2026-04-26 17:28 | 30.47718 | -87.29744 | 4931 ft | 238 kts | 355° |
| 2026-04-26 17:28 | 30.49397 | -87.29572 | 5458 ft | 246 kts | 6° |
| 2026-04-26 17:29 | 30.51161 | -87.29329 | 5844 ft | 265 kts | 5° |
| 2026-04-26 17:29 | 30.52387 | -87.29181 | 6328 ft | 269 kts | 4° |
| 2026-04-26 17:29 | 30.54895 | -87.28930 | 7520 ft | 270 kts | 3° |
| 2026-04-26 17:29 | 30.56780 | -87.28775 | 8493 ft | 273 kts | 2° |
| 2026-04-26 17:30 | 30.58687 | -87.28637 | 9406 ft | 276 kts | 2° |
| 2026-04-26 17:30 | 30.60591 | -87.28510 | 10242 ft | 278 kts | 1° |
| 2026-04-26 17:30 | 30.62618 | -87.28384 | 10574 ft | 300 kts | 1° |
| 2026-04-26 17:30 | 30.64761 | -87.28256 | 10744 ft | 324 kts | 1° |
| 2026-04-26 17:31 | 30.67091 | -87.28118 | 10889 ft | 346 kts | 1° |
| 2026-04-26 17:31 | 30.69545 | -87.27974 | 11209 ft | 359 kts | 1° |
| 2026-04-26 17:31 | 30.72061 | -87.27880 | 11736 ft | 363 kts | 354° |
| 2026-04-26 17:31 | 30.74498 | -87.28605 | 12331 ft | 363 kts | 332° |
| 2026-04-26 17:32 | 30.76544 | -87.30310 | 12973 ft | 363 kts | 313° |
| 2026-04-26 17:32 | 30.78000 | -87.32702 | 13596 ft | 366 kts | 295° |
| 2026-04-26 17:32 | 30.78754 | -87.35508 | 14277 ft | 365 kts | 278° |
| 2026-04-26 17:32 | 30.78782 | -87.38472 | 14868 ft | 369 kts | 267° |
| 2026-04-26 17:33 | 30.78569 | -87.41463 | 15405 ft | 373 kts | 266° |
| 2026-04-26 17:33 | 30.78355 | -87.44485 | 15902 ft | 376 kts | 267° |
| 2026-04-26 17:33 | 30.78162 | -87.47520 | 15958 ft | 376 kts | 268° |
| 2026-04-26 17:34 | 30.77790 | -87.53592 | 15980 ft | 377 kts | 267° |
| 2026-04-26 17:34 | 30.77597 | -87.56633 | 16002 ft | 377 kts | 267° |
| 2026-04-26 17:34 | 30.77404 | -87.59676 | 15993 ft | 377 kts | 267° |
| 2026-04-26 17:34 | 30.77211 | -87.62711 | 15991 ft | 377 kts | 267° |
| 2026-04-26 17:35 | 30.77018 | -87.65754 | 15987 ft | 377 kts | 267° |
| 2026-04-26 17:35 | 30.76829 | -87.68761 | 15990 ft | 377 kts | 268° |
| 2026-04-26 17:35 | 30.76655 | -87.71802 | 16001 ft | 377 kts | 268° |
| 2026-04-26 17:35 | 30.76485 | -87.74840 | 16005 ft | 376 kts | 268° |
| 2026-04-26 17:36 | 30.76264 | -87.77912 | 16007 ft | 377 kts | 263° |
| 2026-04-26 17:36 | 30.75668 | -87.80845 | 16022 ft | 379 kts | 254° |
| 2026-04-26 17:36 | 30.74657 | -87.83682 | 16024 ft | 381 kts | 246° |
| 2026-04-26 17:36 | 30.73463 | -87.86436 | 16036 ft | 382 kts | 246° |
| 2026-04-26 17:37 | 30.72257 | -87.89185 | 16032 ft | 382 kts | 246° |
| 2026-04-26 17:37 | 30.71049 | -87.91938 | 16034 ft | 382 kts | 246° |
| 2026-04-26 17:37 | 30.69845 | -87.94691 | 16038 ft | 382 kts | 246° |
| 2026-04-26 17:38 | 30.67445 | -88.00212 | 16042 ft | 382 kts | 246° |
| 2026-04-26 17:38 | 30.66250 | -88.02970 | 16052 ft | 382 kts | 246° |
| 2026-04-26 17:38 | 30.65061 | -88.05717 | 16057 ft | 382 kts | 246° |
| 2026-04-26 17:38 | 30.63866 | -88.08479 | 16051 ft | 384 kts | 246° |
| 2026-04-26 17:39 | 30.62663 | -88.11256 | 16071 ft | 388 kts | 246° |
| 2026-04-26 17:39 | 30.61443 | -88.14073 | 16561 ft | 389 kts | 246° |
| 2026-04-26 17:39 | 30.60226 | -88.16877 | 17193 ft | 390 kts | 246° |
| 2026-04-26 17:39 | 30.59000 | -88.19703 | 17703 ft | 393 kts | 246° |
| 2026-04-26 17:40 | 30.57764 | -88.22550 | 18181 ft | 397 kts | 246° |
| 2026-04-26 17:40 | 30.56939 | -88.24449 | 18472 ft | 400 kts | 246° |
| 2026-04-26 17:40 | 30.55254 | -88.28322 | 19071 ft | 403 kts | 246° |
| 2026-04-26 17:40 | 30.54001 | -88.31199 | 19523 ft | 405 kts | 246° |
| 2026-04-26 17:41 | 30.52728 | -88.34121 | 19941 ft | 408 kts | 246° |
| 2026-04-26 17:41 | 30.51445 | -88.37062 | 20364 ft | 411 kts | 246° |
| 2026-04-26 17:41 | 30.50148 | -88.40035 | 20800 ft | 413 kts | 246° |
| 2026-04-26 17:41 | 30.48843 | -88.43022 | 21230 ft | 416 kts | 246° |
| 2026-04-26 17:42 | 30.47533 | -88.46018 | 21643 ft | 418 kts | 246° |
| 2026-04-26 17:42 | 30.46211 | -88.49040 | 22061 ft | 420 kts | 247° |
| 2026-04-26 17:42 | 30.44908 | -88.52018 | 22551 ft | 420 kts | 247° |
| 2026-04-26 17:42 | 30.43584 | -88.55038 | 22948 ft | 422 kts | 247° |
| 2026-04-26 17:43 | 30.42248 | -88.58085 | 23305 ft | 425 kts | 247° |
| 2026-04-26 17:43 | 30.40906 | -88.61144 | 23650 ft | 427 kts | 247° |
| 2026-04-26 17:43 | 30.39557 | -88.64217 | 23949 ft | 429 kts | 248° |
| 2026-04-26 17:43 | 30.38204 | -88.67292 | 23966 ft | 427 kts | 248° |
| 2026-04-26 17:44 | 30.36861 | -88.70343 | 23976 ft | 425 kts | 248° |
| 2026-04-26 17:44 | 30.35515 | -88.73403 | 23953 ft | 426 kts | 248° |
| 2026-04-26 17:44 | 30.34169 | -88.76460 | 23956 ft | 426 kts | 248° |
| 2026-04-26 17:44 | 30.32818 | -88.79525 | 23954 ft | 427 kts | 248° |
| 2026-04-26 17:45 | 30.31482 | -88.82607 | 23955 ft | 427 kts | 249° |
| 2026-04-26 17:45 | 30.30236 | -88.85718 | 23936 ft | 426 kts | 250° |
| 2026-04-26 17:45 | 30.29033 | -88.88845 | 23948 ft | 425 kts | 250° |
| 2026-04-26 17:45 | 30.27846 | -88.91963 | 23941 ft | 423 kts | 250° |
| 2026-04-26 17:46 | 30.26657 | -88.95076 | 23950 ft | 422 kts | 250° |
| 2026-04-26 17:46 | 30.25479 | -88.98137 | 23954 ft | 422 kts | 250° |
| 2026-04-26 17:46 | 30.24280 | -89.01230 | 23951 ft | 421 kts | 250° |
| 2026-04-26 17:46 | 30.23076 | -89.04322 | 23969 ft | 421 kts | 250° |
| 2026-04-26 17:47 | 30.21871 | -89.07405 | 23967 ft | 421 kts | 250° |
| 2026-04-26 17:47 | 30.21056 | -89.09486 | 23973 ft | 421 kts | 250° |
| 2026-04-26 17:47 | 30.19452 | -89.13578 | 23973 ft | 422 kts | 250° |
| 2026-04-26 17:47 | 30.18239 | -89.16666 | 23971 ft | 422 kts | 250° |
| 2026-04-26 17:48 | 30.17023 | -89.19759 | 23973 ft | 423 kts | 250° |
| 2026-04-26 17:48 | 30.15806 | -89.22856 | 23975 ft | 423 kts | 250° |
| 2026-04-26 17:48 | 30.14587 | -89.25951 | 23982 ft | 423 kts | 250° |
| 2026-04-26 17:48 | 30.13367 | -89.29048 | 23982 ft | 423 kts | 250° |
| 2026-04-26 17:49 | 30.12146 | -89.32143 | 23988 ft | 423 kts | 250° |
| 2026-04-26 17:49 | 30.10926 | -89.35236 | 23965 ft | 423 kts | 250° |
| 2026-04-26 17:49 | 30.09704 | -89.38330 | 23969 ft | 424 kts | 250° |
| 2026-04-26 17:49 | 30.08479 | -89.41430 | 23975 ft | 424 kts | 250° |
| 2026-04-26 17:50 | 30.07254 | -89.44528 | 23982 ft | 424 kts | 250° |
| 2026-04-26 17:50 | 30.06024 | -89.47633 | 23984 ft | 425 kts | 250° |
| 2026-04-26 17:50 | 30.04795 | -89.50735 | 23984 ft | 425 kts | 250° |
| 2026-04-26 17:50 | 30.03563 | -89.53842 | 23984 ft | 426 kts | 250° |
| 2026-04-26 17:51 | 30.02331 | -89.56945 | 23981 ft | 426 kts | 250° |
| 2026-04-26 17:51 | 30.01096 | -89.60056 | 23981 ft | 426 kts | 250° |
| 2026-04-26 17:51 | 29.99860 | -89.63164 | 23981 ft | 426 kts | 250° |
| 2026-04-26 17:51 | 29.98623 | -89.66272 | 23980 ft | 426 kts | 250° |
| 2026-04-26 17:52 | 29.97388 | -89.69374 | 23978 ft | 426 kts | 250° |
| 2026-04-26 17:52 | 29.96146 | -89.72488 | 23981 ft | 426 kts | 250° |
| 2026-04-26 17:52 | 29.94912 | -89.75582 | 23980 ft | 426 kts | 250° |
| 2026-04-26 17:52 | 29.93672 | -89.78688 | 23984 ft | 426 kts | 250° |
| 2026-04-26 17:53 | 29.92433 | -89.81790 | 23987 ft | 426 kts | 250° |
| 2026-04-26 17:53 | 29.91189 | -89.84901 | 23985 ft | 426 kts | 250° |
| 2026-04-26 17:53 | 29.89966 | -89.87957 | 23987 ft | 425 kts | 250° |
| 2026-04-26 17:54 | 29.87489 | -89.94143 | 23978 ft | 425 kts | 250° |
| 2026-04-26 17:54 | 29.86248 | -89.97236 | 23980 ft | 425 kts | 250° |
| 2026-04-26 17:54 | 29.85048 | -90.00339 | 23997 ft | 422 kts | 254° |
| 2026-04-26 17:54 | 29.84344 | -90.03584 | 24018 ft | 416 kts | 263° |
| 2026-04-26 17:55 | 29.83868 | -90.06870 | 24015 ft | 416 kts | 264° |
| 2026-04-26 17:55 | 29.83409 | -90.10208 | 24008 ft | 417 kts | 264° |
| 2026-04-26 17:55 | 29.82959 | -90.13464 | 24011 ft | 417 kts | 264° |
| 2026-04-26 17:55 | 29.82491 | -90.16758 | 23991 ft | 417 kts | 264° |
| 2026-04-26 17:56 | 29.82012 | -90.20052 | 23998 ft | 418 kts | 264° |
| 2026-04-26 17:56 | 29.81022 | -90.26659 | 23991 ft | 420 kts | 263° |
| 2026-04-26 17:57 | 29.80011 | -90.33285 | 23993 ft | 422 kts | 263° |
| 2026-04-26 17:57 | 29.79500 | -90.36619 | 23985 ft | 423 kts | 263° |
| 2026-04-26 17:57 | 29.78988 | -90.39954 | 23980 ft | 422 kts | 263° |
| 2026-04-26 17:57 | 29.78476 | -90.43276 | 23982 ft | 421 kts | 263° |
| 2026-04-26 17:58 | 29.76958 | -90.53081 | 23978 ft | 403 kts | 263° |
| 2026-04-26 17:59 | 29.75977 | -90.59408 | 23990 ft | 402 kts | 263° |
| 2026-04-26 17:59 | 29.75486 | -90.62580 | 23997 ft | 403 kts | 263° |
| 2026-04-26 17:59 | 29.74994 | -90.65750 | 23995 ft | 403 kts | 263° |
| 2026-04-26 17:59 | 29.74499 | -90.68930 | 23992 ft | 404 kts | 263° |
| 2026-04-26 18:00 | 29.74003 | -90.72110 | 23996 ft | 404 kts | 263° |
| 2026-04-26 18:00 | 29.73506 | -90.75290 | 23993 ft | 404 kts | 263° |
| 2026-04-26 18:00 | 29.73008 | -90.78467 | 23975 ft | 403 kts | 263° |
| 2026-04-26 18:00 | 29.72679 | -90.80570 | 23976 ft | 403 kts | 263° |
| 2026-04-26 18:01 | 29.72018 | -90.84771 | 23979 ft | 402 kts | 263° |
| 2026-04-26 18:01 | 29.71519 | -90.87943 | 23985 ft | 402 kts | 263° |
| 2026-04-26 18:01 | 29.71021 | -90.91105 | 23986 ft | 401 kts | 263° |
| 2026-04-26 18:01 | 29.70690 | -90.93198 | 23983 ft | 401 kts | 263° |
| 2026-04-26 18:02 | 29.70192 | -90.96350 | 23973 ft | 401 kts | 263° |
| 2026-04-26 18:02 | 29.69855 | -90.98479 | 23975 ft | 401 kts | 263° |
| 2026-04-26 18:02 | 29.69192 | -91.02662 | 23980 ft | 401 kts | 263° |
| 2026-04-26 18:02 | 29.68691 | -91.05820 | 23979 ft | 401 kts | 263° |
| 2026-04-26 18:03 | 29.68188 | -91.08983 | 23973 ft | 401 kts | 263° |
| 2026-04-26 18:03 | 29.67685 | -91.12141 | 23977 ft | 402 kts | 263° |
| 2026-04-26 18:03 | 29.67179 | -91.15311 | 23968 ft | 403 kts | 263° |
| 2026-04-26 18:03 | 29.66672 | -91.18490 | 23977 ft | 404 kts | 263° |
| 2026-04-26 18:04 | 29.66168 | -91.21635 | 23962 ft | 404 kts | 263° |
| 2026-04-26 18:04 | 29.65660 | -91.24801 | 23964 ft | 402 kts | 263° |
| 2026-04-26 18:04 | 29.65152 | -91.27964 | 23964 ft | 401 kts | 263° |
| 2026-04-26 18:05 | 29.64138 | -91.34264 | 23980 ft | 401 kts | 263° |
| 2026-04-26 18:05 | 29.63629 | -91.37418 | 23969 ft | 402 kts | 263° |
| 2026-04-26 18:05 | 29.63119 | -91.40576 | 23967 ft | 401 kts | 263° |
| 2026-04-26 18:05 | 29.62608 | -91.43731 | 23973 ft | 401 kts | 263° |
| 2026-04-26 18:06 | 29.62098 | -91.46880 | 23983 ft | 401 kts | 263° |
| 2026-04-26 18:06 | 29.61586 | -91.50033 | 23971 ft | 402 kts | 263° |
| 2026-04-26 18:06 | 29.61072 | -91.53196 | 23957 ft | 402 kts | 263° |
| 2026-04-26 18:06 | 29.60558 | -91.56352 | 23962 ft | 402 kts | 263° |
| 2026-04-26 18:07 | 29.60042 | -91.59510 | 23946 ft | 401 kts | 263° |
| 2026-04-26 18:07 | 29.59529 | -91.62656 | 23963 ft | 401 kts | 263° |
| 2026-04-26 18:07 | 29.59014 | -91.65803 | 23963 ft | 401 kts | 263° |
| 2026-04-26 18:07 | 29.58672 | -91.67891 | 23961 ft | 401 kts | 263° |
| 2026-04-26 18:08 | 29.57979 | -91.72114 | 23959 ft | 402 kts | 263° |
| 2026-04-26 18:08 | 29.57460 | -91.75271 | 23960 ft | 402 kts | 263° |
| 2026-04-26 18:08 | 29.56941 | -91.78427 | 23960 ft | 402 kts | 263° |
| 2026-04-26 18:08 | 29.56420 | -91.81583 | 23959 ft | 403 kts | 263° |
| 2026-04-26 18:09 | 29.55906 | -91.84699 | 23957 ft | 403 kts | 263° |
| 2026-04-26 18:09 | 29.55382 | -91.87866 | 23956 ft | 403 kts | 263° |
| 2026-04-26 18:09 | 29.54858 | -91.91028 | 23945 ft | 403 kts | 263° |
| 2026-04-26 18:09 | 29.54334 | -91.94189 | 23948 ft | 403 kts | 263° |
| 2026-04-26 18:10 | 29.53807 | -91.97357 | 23954 ft | 403 kts | 262° |
| 2026-04-26 18:10 | 29.53279 | -92.00532 | 23955 ft | 404 kts | 262° |
| 2026-04-26 18:10 | 29.52752 | -92.03696 | 23955 ft | 404 kts | 262° |
| 2026-04-26 18:10 | 29.52222 | -92.06869 | 23945 ft | 404 kts | 263° |
| 2026-04-26 18:11 | 29.51692 | -92.10041 | 23946 ft | 404 kts | 263° |
| 2026-04-26 18:11 | 29.51160 | -92.13217 | 23952 ft | 404 kts | 263° |
| 2026-04-26 18:11 | 29.50629 | -92.16389 | 23952 ft | 404 kts | 263° |
| 2026-04-26 18:11 | 29.50096 | -92.19559 | 23951 ft | 404 kts | 263° |
| 2026-04-26 18:12 | 29.49563 | -92.22727 | 23950 ft | 404 kts | 262° |
| 2026-04-26 18:12 | 29.49036 | -92.25858 | 23951 ft | 404 kts | 262° |
| 2026-04-26 18:12 | 29.48502 | -92.29027 | 23951 ft | 404 kts | 262° |
| 2026-04-26 18:12 | 29.47967 | -92.32194 | 23941 ft | 404 kts | 262° |
| 2026-04-26 18:13 | 29.47433 | -92.35354 | 23946 ft | 404 kts | 262° |
| 2026-04-26 18:13 | 29.46896 | -92.38523 | 23946 ft | 404 kts | 262° |
| 2026-04-26 18:13 | 29.46360 | -92.41683 | 23948 ft | 404 kts | 262° |
| 2026-04-26 18:13 | 29.46004 | -92.43782 | 23947 ft | 404 kts | 262° |
| 2026-04-26 18:14 | 29.45622 | -92.48033 | 23952 ft | 399 kts | 275° |
| 2026-04-26 18:14 | 29.45773 | -92.51206 | 23948 ft | 398 kts | 276° |
| 2026-04-26 18:14 | 29.45966 | -92.54383 | 23950 ft | 398 kts | 276° |
| 2026-04-26 18:14 | 29.46159 | -92.57554 | 23953 ft | 399 kts | 276° |
| 2026-04-26 18:15 | 29.46339 | -92.60729 | 23944 ft | 399 kts | 276° |
| 2026-04-26 18:15 | 29.46506 | -92.63906 | 23944 ft | 399 kts | 276° |
| 2026-04-26 18:15 | 29.46663 | -92.67091 | 23949 ft | 399 kts | 275° |
| 2026-04-26 18:15 | 29.46813 | -92.70271 | 23940 ft | 400 kts | 275° |
| 2026-04-26 18:16 | 29.46960 | -92.73458 | 23951 ft | 400 kts | 275° |
| 2026-04-26 18:16 | 29.47249 | -92.79831 | 23952 ft | 400 kts | 275° |
| 2026-04-26 18:16 | 29.47392 | -92.83020 | 23950 ft | 400 kts | 275° |
| 2026-04-26 18:17 | 29.47536 | -92.86213 | 23950 ft | 400 kts | 275° |
| 2026-04-26 18:17 | 29.47676 | -92.89369 | 23945 ft | 400 kts | 275° |
| 2026-04-26 18:17 | 29.47818 | -92.92556 | 23955 ft | 400 kts | 275° |
| 2026-04-26 18:17 | 29.47959 | -92.95751 | 23955 ft | 400 kts | 275° |
| 2026-04-26 18:18 | 29.48099 | -92.98942 | 23951 ft | 400 kts | 275° |
| 2026-04-26 18:18 | 29.48239 | -93.02135 | 23953 ft | 400 kts | 275° |
| 2026-04-26 18:18 | 29.48378 | -93.05322 | 23947 ft | 400 kts | 275° |
| 2026-04-26 18:18 | 29.48515 | -93.08511 | 23951 ft | 399 kts | 275° |
| 2026-04-26 18:19 | 29.48647 | -93.11695 | 23953 ft | 399 kts | 275° |
| 2026-04-26 18:19 | 29.48775 | -93.14885 | 23952 ft | 399 kts | 275° |
| 2026-04-26 18:19 | 29.48901 | -93.18062 | 23952 ft | 398 kts | 275° |
| 2026-04-26 18:19 | 29.49026 | -93.21239 | 23948 ft | 398 kts | 275° |
| 2026-04-26 18:20 | 29.49150 | -93.24407 | 23948 ft | 398 kts | 275° |
| 2026-04-26 18:20 | 29.49274 | -93.27578 | 23948 ft | 398 kts | 275° |
| 2026-04-26 18:20 | 29.49398 | -93.30749 | 23947 ft | 398 kts | 275° |
| 2026-04-26 18:20 | 29.49480 | -93.32852 | 23948 ft | 398 kts | 275° |
| 2026-04-26 18:21 | 29.49643 | -93.37057 | 23959 ft | 398 kts | 274° |
| 2026-04-26 18:21 | 29.49765 | -93.40229 | 23952 ft | 398 kts | 275° |
| 2026-04-26 18:21 | 29.49886 | -93.43411 | 23949 ft | 399 kts | 275° |
| 2026-04-26 18:21 | 29.50007 | -93.46590 | 23946 ft | 399 kts | 274° |
| 2026-04-26 18:22 | 29.50127 | -93.49779 | 23946 ft | 399 kts | 274° |
| 2026-04-26 18:22 | 29.50246 | -93.52965 | 23943 ft | 399 kts | 274° |
| 2026-04-26 18:22 | 29.50364 | -93.56152 | 23945 ft | 399 kts | 274° |
| 2026-04-26 18:22 | 29.50482 | -93.59334 | 23944 ft | 399 kts | 274° |
| 2026-04-26 18:23 | 29.50599 | -93.62521 | 23937 ft | 399 kts | 274° |
| 2026-04-26 18:23 | 29.50715 | -93.65701 | 23941 ft | 399 kts | 274° |
| 2026-04-26 18:23 | 29.50830 | -93.68886 | 23944 ft | 399 kts | 274° |
| 2026-04-26 18:23 | 29.50945 | -93.72070 | 23941 ft | 399 kts | 274° |
| 2026-04-26 18:24 | 29.51059 | -93.75254 | 23945 ft | 399 kts | 274° |
| 2026-04-26 18:24 | 29.51172 | -93.78433 | 23943 ft | 399 kts | 274° |
| 2026-04-26 18:24 | 29.51284 | -93.81622 | 23933 ft | 399 kts | 274° |
| 2026-04-26 18:24 | 29.51396 | -93.84802 | 23939 ft | 398 kts | 274° |
| 2026-04-26 18:25 | 29.51506 | -93.87976 | 23932 ft | 398 kts | 274° |
| 2026-04-26 18:25 | 29.51616 | -93.91149 | 23938 ft | 398 kts | 274° |
| 2026-04-26 18:25 | 29.51725 | -93.94323 | 23932 ft | 395 kts | 274° |
| 2026-04-26 18:25 | 29.51830 | -93.97410 | 23920 ft | 379 kts | 274° |
| 2026-04-26 18:26 | 29.51931 | -94.00386 | 23740 ft | 370 kts | 274° |
| 2026-04-26 18:26 | 29.52032 | -94.03316 | 23390 ft | 364 kts | 274° |
| 2026-04-26 18:26 | 29.52132 | -94.06216 | 22894 ft | 361 kts | 274° |
| 2026-04-26 18:26 | 29.52230 | -94.09081 | 22394 ft | 357 kts | 274° |
| 2026-04-26 18:27 | 29.52326 | -94.11883 | 21917 ft | 354 kts | 274° |
| 2026-04-26 18:27 | 29.52422 | -94.14738 | 21434 ft | 351 kts | 274° |
| 2026-04-26 18:27 | 29.52516 | -94.17527 | 20966 ft | 349 kts | 275° |
| 2026-04-26 18:27 | 29.52607 | -94.20263 | 20500 ft | 346 kts | 275° |
| 2026-04-26 18:28 | 29.52698 | -94.23015 | 20047 ft | 344 kts | 275° |
| 2026-04-26 18:28 | 29.52788 | -94.25754 | 19597 ft | 342 kts | 275° |
| 2026-04-26 18:28 | 29.52896 | -94.28472 | 19127 ft | 339 kts | 278° |
| 2026-04-26 18:28 | 29.53479 | -94.31058 | 18690 ft | 334 kts | 294° |
| 2026-04-26 18:29 | 29.54468 | -94.33458 | 18246 ft | 332 kts | 297° |
| 2026-04-26 18:29 | 29.55511 | -94.35820 | 17733 ft | 330 kts | 297° |
| 2026-04-26 18:29 | 29.56549 | -94.38161 | 17316 ft | 327 kts | 297° |
| 2026-04-26 18:29 | 29.57568 | -94.40483 | 16863 ft | 325 kts | 296° |
| 2026-04-26 18:30 | 29.58573 | -94.42802 | 16403 ft | 323 kts | 296° |
| 2026-04-26 18:30 | 29.59565 | -94.45109 | 15973 ft | 321 kts | 296° |
| 2026-04-26 18:30 | 29.60552 | -94.47412 | 15534 ft | 320 kts | 295° |
| 2026-04-26 18:30 | 29.61533 | -94.49704 | 15103 ft | 319 kts | 295° |
| 2026-04-26 18:31 | 29.62508 | -94.51983 | 14784 ft | 316 kts | 295° |
| 2026-04-26 18:31 | 29.63484 | -94.54259 | 14480 ft | 318 kts | 295° |
| 2026-04-26 18:31 | 29.64472 | -94.56561 | 14168 ft | 324 kts | 295° |
| 2026-04-26 18:31 | 29.65475 | -94.58903 | 13852 ft | 328 kts | 295° |
| 2026-04-26 18:32 | 29.66471 | -94.61230 | 13511 ft | 330 kts | 295° |
| 2026-04-26 18:32 | 29.67485 | -94.63598 | 13173 ft | 330 kts | 295° |
| 2026-04-26 18:32 | 29.68496 | -94.65961 | 12851 ft | 329 kts | 295° |
| 2026-04-26 18:32 | 29.69520 | -94.68357 | 12542 ft | 329 kts | 295° |
| 2026-04-26 18:33 | 29.70512 | -94.70679 | 12226 ft | 327 kts | 295° |
| 2026-04-26 18:33 | 29.71511 | -94.73020 | 11900 ft | 324 kts | 295° |
| 2026-04-26 18:33 | 29.72498 | -94.75334 | 11594 ft | 319 kts | 295° |
| 2026-04-26 18:33 | 29.73465 | -94.77608 | 11301 ft | 315 kts | 295° |
| 2026-04-26 18:34 | 29.74424 | -94.79861 | 11023 ft | 312 kts | 294° |
| 2026-04-26 18:34 | 29.75374 | -94.82095 | 10734 ft | 308 kts | 294° |
| 2026-04-26 18:34 | 29.76307 | -94.84289 | 10449 ft | 303 kts | 294° |
| 2026-04-26 18:34 | 29.77228 | -94.86458 | 10168 ft | 299 kts | 294° |
| 2026-04-26 18:35 | 29.78134 | -94.88591 | 9937 ft | 294 kts | 294° |
| 2026-04-26 18:35 | 29.79012 | -94.90657 | 9945 ft | 280 kts | 293° |
| 2026-04-26 18:35 | 29.79862 | -94.92659 | 9464 ft | 284 kts | 294° |
| 2026-04-26 18:35 | 29.80723 | -94.94692 | 9107 ft | 283 kts | 293° |
| 2026-04-26 18:36 | 29.81569 | -94.96697 | 8817 ft | 280 kts | 292° |
| 2026-04-26 18:36 | 29.82430 | -94.98724 | 8530 ft | 276 kts | 292° |
| 2026-04-26 18:36 | 29.83255 | -95.00677 | 8277 ft | 273 kts | 294° |
| 2026-04-26 18:36 | 29.84083 | -95.02635 | 8029 ft | 271 kts | 294° |
| 2026-04-26 18:37 | 29.84907 | -95.04584 | 7800 ft | 271 kts | 294° |
| 2026-04-26 18:37 | 29.85734 | -95.06539 | 7550 ft | 273 kts | 293° |
| 2026-04-26 18:37 | 29.86567 | -95.08512 | 7266 ft | 274 kts | 292° |
| 2026-04-26 18:37 | 29.87392 | -95.10492 | 7017 ft | 272 kts | 289° |
| 2026-04-26 18:38 | 29.87922 | -95.12563 | 6783 ft | 268 kts | 278° |
| 2026-04-26 18:38 | 29.88308 | -95.14669 | 6514 ft | 269 kts | 278° |
| 2026-04-26 18:38 | 29.88713 | -95.16770 | 6248 ft | 268 kts | 281° |
| 2026-04-26 18:38 | 29.89160 | -95.18833 | 6055 ft | 263 kts | 273° |
| 2026-04-26 18:39 | 29.89177 | -95.20919 | 6031 ft | 261 kts | 265° |
| 2026-04-26 18:39 | 29.89153 | -95.23026 | 6002 ft | 264 kts | 268° |
| 2026-04-26 18:39 | 29.89160 | -95.25141 | 6000 ft | 262 kts | 268° |
| 2026-04-26 18:39 | 29.89172 | -95.27213 | 5993 ft | 255 kts | 267° |
| 2026-04-26 18:40 | 29.89181 | -95.29251 | 5860 ft | 252 kts | 268° |
| 2026-04-26 18:40 | 29.89191 | -95.31224 | 5794 ft | 241 kts | 267° |
| 2026-04-26 18:40 | 29.89198 | -95.33100 | 5748 ft | 227 kts | 266° |
| 2026-04-26 18:40 | 29.89205 | -95.34871 | 5616 ft | 215 kts | 266° |
| 2026-04-26 18:41 | 29.89211 | -95.36540 | 5514 ft | 201 kts | 265° |
| 2026-04-26 18:41 | 29.89216 | -95.38106 | 5326 ft | 192 kts | 265° |
| 2026-04-26 18:41 | 29.89216 | -95.39669 | 4891 ft | 196 kts | 266° |
| 2026-04-26 18:41 | 29.89219 | -95.41235 | 4529 ft | 195 kts | 265° |
| 2026-04-26 18:42 | 29.89224 | -95.42769 | 4278 ft | 189 kts | 264° |
| 2026-04-26 18:42 | 29.89226 | -95.44263 | 4005 ft | 184 kts | 265° |
| 2026-04-26 18:42 | 29.89229 | -95.45729 | 3697 ft | 182 kts | 265° |
| 2026-04-26 18:42 | 29.89196 | -95.47153 | 3402 ft | 178 kts | 260° |
| 2026-04-26 18:43 | 29.89073 | -95.48566 | 3095 ft | 176 kts | 259° |
| 2026-04-26 18:43 | 29.89186 | -95.49998 | 3026 ft | 189 kts | 292° |
| 2026-04-26 18:43 | 29.89968 | -95.51283 | 2996 ft | 202 kts | 307° |
| 2026-04-26 18:43 | 29.90941 | -95.52495 | 2980 ft | 210 kts | 321° |
| 2026-04-26 18:44 | 29.92286 | -95.53107 | 3017 ft | 210 kts | 348° |
| 2026-04-26 18:44 | 29.93748 | -95.53382 | 2996 ft | 215 kts | 352° |
| 2026-04-26 18:44 | 29.95232 | -95.53522 | 2994 ft | 213 kts | 358° |
| 2026-04-26 18:44 | 29.96717 | -95.53573 | 2997 ft | 215 kts | 358° |
| 2026-04-26 18:45 | 29.98146 | -95.53291 | 2967 ft | 210 kts | 33° |
| 2026-04-26 18:45 | 29.98992 | -95.52066 | 3001 ft | 191 kts | 81° |
| 2026-04-26 18:45 | 29.99129 | -95.50560 | 3005 ft | 194 kts | 89° |
| 2026-04-26 18:45 | 29.99279 | -95.48989 | 3004 ft | 197 kts | 90° |
| 2026-04-26 18:46 | 29.99340 | -95.47436 | 2980 ft | 188 kts | 93° |
| 2026-04-26 18:46 | 29.99345 | -95.46457 | 2949 ft | 184 kts | 93° |
| 2026-04-26 18:46 | 29.99394 | -95.44971 | 2624 ft | 182 kts | 92° |
| 2026-04-26 18:46 | 29.99453 | -95.43615 | 2530 ft | 163 kts | 93° |
| 2026-04-26 18:47 | 29.99484 | -95.42352 | 2199 ft | 152 kts | 97° |
| 2026-04-26 18:47 | 29.99447 | -95.41136 | 1684 ft | 152 kts | 98° |
| 2026-04-26 18:47 | 29.99380 | -95.39917 | 1261 ft | 152 kts | 97° |
| 2026-04-26 18:47 | 29.99362 | -95.38702 | 884 ft | 150 kts | 94° |
| 2026-04-26 18:48 | 29.99335 | -95.37534 | 533 ft | 142 kts | 96° |
| 2026-04-26 18:48 | 29.99339 | -95.36381 | 306 ft | 147 kts | 92° |
| 2026-04-26 18:48 | 29.99346 | -95.35215 | 114 ft | 141 kts | 92° |
| 2026-04-26 18:48 | 29.99341 | -95.34193 | 96 ft | 107 kts | 90° |
| 2026-04-26 18:49 | 29.99344 | -95.33586 | 100 ft | 45 kts | 90° |
| 2026-04-26 18:49 | 29.99339 | -95.33398 | 100 ft | 20 kts | 97° |
| 2026-04-26 18:49 | 29.99291 | -95.33240 | 101 ft | 21 kts | 117° |
| 2026-04-26 18:49 | 29.99261 | -95.33180 | 101 ft | 0 kts | 122° |